Time;durP1;ratioP1;P1;durP2;ratioP2;P2;SDS_P1;SDS_P2;PMS_P1;PMS_P2;Temp;Humidity;BMP_temperature;BMP_pressure;BME280_temperature;BME280_humidity;BME280_pressure;Samples;Min_cycle;Max_cycle;Signal;HPM_P1;HPM_P2
2022/04/06 05:03:24;;;;;;;6.20;3.97;;;10.20;99.90;;;;;;6182004;23;20050;-80
2022/04/06 05:05:53;;;;;;;6.65;4.38;;;10.20;99.90;;;;;;6217739;23;20012;-79
2022/04/06 05:08:22;;;;;;;7.60;4.03;;;10.20;99.90;;;;;;6217235;23;20214;-80
2022/04/06 05:54:38;;;;;;;7.47;4.53;;;10.60;99.90;;;;;;6180497;23;20063;-79
2022/04/06 05:57:06;;;;;;;7.78;4.88;;;10.70;99.90;;;;;;6216703;22;20068;-79
2022/04/06 05:59:32;;;;;;;10.52;5.35;;;10.70;99.90;;;;;;6190899;23;20001;-78
2022/04/06 06:01:59;;;;;;;7.47;4.80;;;10.70;99.90;;;;;;6192332;23;20079;-78
2022/04/06 06:04:28;;;;;;;6.93;4.63;;;10.80;99.90;;;;;;6191064;23;20013;-80
2022/04/06 06:06:57;;;;;;;6.35;4.93;;;10.80;99.90;;;;;;6216955;23;20190;-79
2022/04/06 06:09:23;;;;;;;6.53;4.85;;;10.90;99.90;;;;;;6216068;23;20005;-79
2022/04/06 06:11:49;;;;;;;7.45;4.50;;;10.90;99.90;;;;;;6191254;23;20052;-79
2022/04/06 06:17:53;;;;;;;6.70;5.03;;;11.00;99.90;;;;;;6103847;23;20017;-79
2022/04/06 06:20:28;;;;;;;8.55;5.28;;;11.00;99.90;;;;;;6103972;23;20010;-77
2022/04/06 06:23:10;;;;;;;6.88;4.55;;;11.10;99.90;;;;;;6104229;23;20010;-78
2022/04/06 06:25:42;;;;;;;7.38;4.68;;;11.10;99.90;;;;;;6103406;23;20014;-80
2022/04/06 06:28:09;;;;;;;7.30;4.47;;;11.10;99.90;;;;;;6104021;23;20010;-78
2022/04/06 06:30:35;;;;;;;7.25;4.85;;;11.20;99.90;;;;;;6080235;23;20073;-79
2022/04/06 06:33:00;;;;;;;7.50;4.40;;;11.20;99.90;;;;;;6104345;23;20009;-78
2022/04/06 06:35:30;;;;;;;6.38;4.25;;;11.20;99.90;;;;;;6080075;23;20014;-79
2022/04/06 06:37:59;;;;;;;5.57;3.92;;;11.20;99.90;;;;;;6104213;23;20022;-78
2022/04/06 06:40:27;;;;;;;7.47;4.30;;;11.30;99.90;;;;;;6103903;23;20050;-79
2022/04/06 06:43:01;;;;;;;6.43;4.28;;;11.40;99.90;;;;;;6104296;23;20010;-79
2022/04/06 06:45:27;;;;;;;5.32;3.92;;;11.50;99.90;;;;;;6079132;23;20018;-79
2022/04/06 06:47:53;;;;;;;6.07;3.70;;;11.50;99.90;;;;;;6080043;23;20134;-78
2022/04/06 06:50:40;;;;;;;7.75;3.90;;;11.70;99.90;;;;;;6079602;23;20232;-78
2022/04/06 06:53:09;;;;;;;6.32;3.78;;;11.70;99.90;;;;;;6085623;23;20009;-77
2022/04/06 06:55:35;;;;;;;6.15;3.92;;;11.80;99.90;;;;;;6163025;23;20028;-78
2022/04/06 06:58:01;;;;;;;5.90;3.72;;;11.90;99.90;;;;;;6138845;23;20002;-77
2022/04/06 07:00:30;;;;;;;9.63;3.92;;;11.90;99.80;;;;;;6142314;23;20279;-79
2022/04/06 07:02:56;;;;;;;5.25;3.40;;;11.90;99.80;;;;;;6192758;23;20051;-78
2022/04/06 07:05:22;;;;;;;4.53;3.15;;;11.90;99.80;;;;;;6192898;23;20009;-78
2022/04/06 07:07:48;;;;;;;7.78;3.75;;;12.00;99.80;;;;;;6192688;23;20008;-78
2022/04/06 07:10:26;;;;;;;4.53;3.17;;;12.00;99.70;;;;;;6193228;23;20001;-79
2022/04/06 07:12:52;;;;;;;4.93;3.08;;;12.20;99.30;;;;;;6157953;23;20009;-78
2022/04/06 07:15:19;;;;;;;4.15;3.00;;;12.30;99.10;;;;;;6186978;23;20036;-79
2022/04/06 07:17:49;;;;;;;4.05;2.85;;;12.40;98.60;;;;;;6164312;23;20317;-77
2022/04/06 07:20:21;;;;;;;4.85;2.97;;;12.50;98.60;;;;;;6138834;23;20006;-79
2022/04/06 07:22:50;;;;;;;5.07;3.00;;;12.40;98.40;;;;;;6138246;23;20010;-78
2022/04/06 07:25:34;;;;;;;4.07;2.65;;;12.50;98.50;;;;;;6137746;23;20009;-78
2022/04/06 07:28:28;;;;;;;4.78;2.70;;;12.60;98.10;;;;;;6139138;23;20005;-79
2022/04/06 07:30:54;;;;;;;4.47;2.47;;;12.90;98.10;;;;;;6097830;23;20025;-79
2022/04/06 07:33:47;;;;;;;3.53;2.30;;;12.90;97.60;;;;;;6163134;23;20068;-79
2022/04/06 07:36:17;;;;;;;4.13;2.35;;;13.00;97.40;;;;;;6135976;23;20017;-78
2022/04/06 07:38:43;;;;;;;5.65;2.15;;;13.10;97.00;;;;;;6162694;23;20029;-78
2022/04/06 07:41:09;;;;;;;3.88;1.80;;;13.10;96.90;;;;;;6163872;23;20012;-79
2022/04/06 07:43:44;;;;;;;3.67;2.22;;;13.00;96.60;;;;;;6138740;23;20021;-79
2022/04/06 07:46:13;;;;;;;3.20;1.50;;;13.00;96.90;;;;;;6162931;23;20028;-79
2022/04/06 07:48:41;;;;;;;3.80;1.80;;;12.90;96.80;;;;;;6163215;23;20006;-79
2022/04/06 07:51:07;;;;;;;4.32;2.00;;;12.70;97.10;;;;;;6132380;23;20006;-80
2022/04/06 07:53:33;;;;;;;3.95;1.98;;;12.90;97.30;;;;;;6168907;23;20009;-79
2022/04/06 07:55:59;;;;;;;2.70;1.60;;;13.00;96.90;;;;;;6162558;23;20013;-77
2022/04/06 07:58:24;;;;;;;3.33;1.60;;;13.00;96.70;;;;;;6112966;23;20370;-79
2022/04/06 08:00:51;;;;;;;3.55;1.90;;;13.30;96.40;;;;;;6185701;23;20015;-78
2022/04/06 08:03:17;;;;;;;2.80;2.00;;;13.50;96.00;;;;;;6137239;23;20069;-78
2022/04/06 08:05:44;;;;;;;8.63;2.05;;;13.50;95.70;;;;;;6161483;23;20008;-78
2022/04/06 08:08:10;;;;;;;4.00;1.83;;;13.60;95.60;;;;;;6162023;23;20052;-79
2022/04/06 08:10:36;;;;;;;5.65;1.50;;;13.70;95.20;;;;;;6136193;23;20400;-78
2022/04/06 08:13:02;;;;;;;2.83;1.60;;;13.70;95.30;;;;;;6137268;23;20398;-78
2022/04/06 08:15:28;;;;;;;4.10;2.15;;;13.50;95.40;;;;;;6162097;23;20010;-79
2022/04/06 08:17:56;;;;;;;3.53;1.50;;;13.60;95.30;;;;;;6187317;23;20013;-78
2022/04/06 08:23:36;;;;;;;2.40;1.10;;;14.20;94.70;;;;;;6163661;23;20196;-78
2022/04/06 08:26:05;;;;;;;5.03;1.50;;;14.70;93.10;;;;;;6138165;23;20240;-78
2022/04/06 08:28:56;;;;;;;2.67;1.27;;;14.20;93.50;;;;;;6143492;23;20206;-78
2022/04/06 08:31:31;;;;;;;9.00;4.70;;;14.10;93.40;;;;;;6137487;23;20018;-78
2022/04/06 08:34:07;;;;;;;2.33;1.17;;;14.10;93.30;;;;;;6138430;23;20005;-79
2022/04/06 08:36:36;;;;;;;4.40;2.70;;;14.30;93.50;;;;;;6162915;23;20099;-78
2022/04/06 08:39:02;;;;;;;2.30;0.88;;;14.70;92.60;;;;;;6182754;23;20064;-79
2022/04/06 08:41:34;;;;;;;2.88;1.67;;;14.90;92.10;;;;;;6163457;23;20295;-81
2022/04/06 08:44:23;;;;;;;2.28;1.00;;;14.90;92.60;;;;;;6138109;23;20009;-80
2022/04/06 08:46:51;;;;;;;2.05;0.70;;;14.60;91.70;;;;;;6147403;23;20018;-78
2022/04/06 08:49:18;;;;;;;2.55;0.70;;;14.50;91.80;;;;;;6138594;23;20005;-80
2022/04/06 08:51:45;;;;;;;1.55;0.63;;;14.70;91.60;;;;;;6137240;23;20031;-78
2022/04/06 08:54:11;;;;;;;2.08;0.70;;;14.70;91.60;;;;;;6149756;23;20013;-79
2022/04/06 08:56:37;;;;;;;1.88;0.50;;;14.50;91.20;;;;;;6163227;23;20068;-79
2022/04/06 08:59:04;;;;;;;1.17;0.38;;;14.60;91.60;;;;;;6137812;23;20013;-77
2022/04/06 09:01:33;;;;;;;1.55;0.40;;;14.50;91.10;;;;;;6199088;23;20005;-79
2022/04/06 09:04:02;;;;;;;1.58;0.57;;;14.60;90.90;;;;;;6197140;23;20005;-79
2022/04/06 09:06:48;;;;;;;1.23;0.40;;;14.50;90.40;;;;;;6223197;23;20032;-79
2022/04/06 09:09:24;;;;;;;1.38;0.40;;;14.50;90.20;;;;;;6215221;23;20011;-79
2022/04/06 09:11:53;;;;;;;1.15;0.30;;;14.40;90.40;;;;;;6223575;23;20005;-80
2022/04/06 09:14:37;;;;;;;1.88;0.60;;;14.50;90.70;;;;;;6197674;23;20001;-79
2022/04/06 09:17:06;;;;;;;1.52;0.30;;;14.50;90.00;;;;;;6197183;23;20074;-78
2022/04/06 09:19:44;;;;;;;1.30;0.40;;;14.60;90.20;;;;;;6223266;23;20000;-78
2022/04/06 09:22:10;;;;;;;1.65;0.50;;;14.90;89.50;;;;;;6223600;23;20190;-79
2022/04/06 09:24:37;;;;;;;1.50;0.60;;;14.80;89.20;;;;;;6196315;23;20016;-78
2022/04/06 09:27:05;;;;;;;2.92;0.30;;;14.80;88.50;;;;;;6222086;23;19997;-79
2022/04/06 09:29:31;;;;;;;1.15;0.35;;;14.90;88.60;;;;;;6222985;23;20225;-79
2022/04/06 09:32:08;;;;;;;1.20;0.38;;;15.20;88.60;;;;;;6221936;22;20017;-79
2022/04/06 09:34:35;;;;;;;1.20;0.30;;;15.40;86.50;;;;;;6222244;23;20091;-80
2022/04/06 09:37:26;;;;;;;0.98;0.30;;;15.30;86.90;;;;;;6222342;23;19996;-79
2022/04/06 09:40:08;;;;;;;1.17;0.32;;;15.50;87.00;;;;;;6210381;22;20144;-80
2022/04/06 09:42:34;;;;;;;1.60;0.30;;;15.20;86.40;;;;;;6196028;23;20104;-77
2022/04/06 09:47:53;;;;;;;0.25;0.10;;;15.20;85.20;;;;;;6224486;23;20287;-80
2022/04/06 09:50:20;;;;;;;1.17;0.15;;;15.20;84.10;;;;;;6225360;23;20011;-79
2022/04/06 09:52:47;;;;;;;0.38;0.17;;;15.10;84.80;;;;;;6225759;23;20024;-79
2022/04/06 09:55:16;;;;;;;1.60;0.30;;;15.10;85.00;;;;;;6225405;23;20005;-80
2022/04/06 09:57:58;;;;;;;0.38;0.17;;;15.30;84.40;;;;;;6198230;23;20072;-78
2022/04/06 10:00:30;;;;;;;1.02;0.20;;;15.40;84.50;;;;;;6193632;22;20005;-79
2022/04/06 10:03:07;;;;;;;1.85;0.20;;;15.60;84.80;;;;;;6168201;23;20008;-78
2022/04/06 10:05:35;;;;;;;1.15;0.40;;;16.00;83.50;;;;;;6168519;23;20024;-80
2022/04/06 10:08:10;;;;;;;2.33;0.30;;;16.20;83.10;;;;;;6168943;23;20198;-79
2022/04/06 10:10:38;;;;;;;1.40;0.50;;;16.50;82.20;;;;;;6169222;23;20005;-81
2022/04/06 10:13:05;;;;;;;1.30;0.20;;;16.70;81.70;;;;;;6194836;23;19985;-79
2022/04/06 10:15:34;;;;;;;0.98;0.17;;;16.90;81.60;;;;;;6168311;23;20326;-78
2022/04/06 10:18:00;;;;;;;1.20;0.20;;;16.70;80.20;;;;;;6193756;23;20072;-79
2022/04/06 10:20:59;;;;;;;1.50;0.20;;;16.30;80.60;;;;;;6168228;23;20005;-80
2022/04/06 10:24:12;;;;;;;0.95;0.20;;;16.30;80.50;;;;;;6195138;23;20008;-79
2022/04/06 10:27:04;;;;;;;0.98;0.30;;;15.90;81.30;;;;;;6166571;23;20013;-78
2022/04/06 10:29:31;;;;;;;2.75;0.43;;;16.10;82.70;;;;;;6194616;23;20189;-79
2022/04/06 10:31:56;;;;;;;1.17;0.30;;;16.00;82.10;;;;;;6187807;23;20028;-79
2022/04/06 10:34:25;;;;;;;0.45;0.10;;;16.00;82.10;;;;;;6193663;23;20005;-78
2022/04/06 10:37:11;;;;;;;1.77;0.30;;;16.20;81.10;;;;;;6191840;23;20001;-79
2022/04/06 10:39:53;;;;;;;0.38;0.10;;;16.40;81.30;;;;;;6193142;23;20009;-78
2022/04/06 10:42:30;;;;;;;0.38;0.10;;;16.60;80.40;;;;;;6193285;23;20190;-79
2022/04/06 10:44:56;;;;;;;0.68;0.20;;;16.30;81.30;;;;;;6192692;23;20081;-79
2022/04/06 10:47:23;;;;;;;1.15;0.20;;;16.40;81.00;;;;;;6168488;23;20013;-78
2022/04/06 10:50:21;;;;;;;0.52;0.10;;;16.60;81.20;;;;;;6192957;23;20005;-79
2022/04/06 10:52:47;;;;;;;0.80;0.22;;;16.50;78.00;;;;;;6192661;23;20005;-80
2022/04/06 10:55:24;;;;;;;0.65;0.20;;;16.70;79.00;;;;;;6168665;23;20005;-79
2022/04/06 10:57:56;;;;;;;1.38;0.10;;;16.60;78.20;;;;;;6167781;23;20005;-79
2022/04/06 11:00:22;;;;;;;0.47;0.10;;;17.00;77.80;;;;;;6191469;23;22077;-77
2022/04/06 11:02:51;;;;;;;0.73;0.20;;;16.70;77.90;;;;;;6192330;23;20009;-77
2022/04/06 11:05:49;;;;;;;0.68;0.15;;;16.50;79.00;;;;;;6168443;23;20011;-77
2022/04/06 11:11:45;;;;;;;0.30;0.10;;;16.90;79.30;;;;;;6192512;23;20416;-77
2022/04/06 11:14:23;;;;;;;0.70;0.20;;;17.20;76.90;;;;;;6193043;23;20000;-78
2022/04/06 11:16:49;;;;;;;1.23;0.10;;;17.60;76.60;;;;;;6193565;23;20299;-78
2022/04/06 11:19:16;;;;;;;1.17;0.20;;;18.10;75.80;;;;;;6193774;23;19996;-78
2022/04/06 11:21:46;;;;;;;0.90;0.25;;;18.30;74.50;;;;;;6167896;23;20176;-79
2022/04/06 11:24:23;;;;;;;0.57;0.20;;;18.80;73.80;;;;;;6193856;23;19989;-79
2022/04/06 11:26:49;;;;;;;2.03;0.20;;;19.10;72.70;;;;;;6192206;23;20025;-79
2022/04/06 11:29:40;;;;;;;0.77;0.22;;;19.80;72.10;;;;;;6194671;23;20016;-79
2022/04/06 11:32:06;;;;;;;0.65;0.17;;;20.30;69.60;;;;;;6189160;23;20242;-78
2022/04/06 11:34:33;;;;;;;1.05;0.20;;;20.00;70.90;;;;;;6193633;23;20005;-79
2022/04/06 11:37:00;;;;;;;0.60;0.20;;;19.90;71.30;;;;;;6192878;23;20064;-78
2022/04/06 11:39:29;;;;;;;0.52;0.20;;;20.00;70.30;;;;;;6218491;23;20051;-78
2022/04/06 11:41:54;;;;;;;0.43;0.20;;;20.00;70.50;;;;;;6192578;23;20207;-78
2022/04/06 11:44:23;;;;;;;1.05;0.30;;;20.60;69.30;;;;;;6193641;23;20017;-78
2022/04/06 11:46:48;;;;;;;0.70;0.20;;;20.60;68.60;;;;;;6191883;23;20307;-78
2022/04/06 11:49:24;;;;;;;2.03;0.20;;;21.60;67.30;;;;;;6218879;23;20011;-79
2022/04/06 11:51:52;;;;;;;0.80;0.17;;;21.20;67.90;;;;;;6192921;23;20017;-78
2022/04/06 11:54:39;;;;;;;0.95;0.20;;;21.60;68.10;;;;;;6192239;23;20017;-77
2022/04/06 11:57:04;;;;;;;1.35;0.40;;;20.90;67.90;;;;;;6194528;23;20180;-79
2022/04/06 11:59:31;;;;;;;0.90;0.38;;;21.60;66.90;;;;;;6218631;23;20071;-79
2022/04/06 12:01:57;;;;;;;1.30;0.20;;;21.50;66.10;;;;;;6192058;23;20024;-77
2022/04/06 12:04:24;;;;;;;0.75;0.10;;;21.60;66.10;;;;;;6219163;23;20008;-78
2022/04/06 12:06:54;;;;;;;0.73;0.20;;;22.40;64.90;;;;;;6217924;23;20171;-78
2022/04/06 12:09:22;;;;;;;0.57;0.20;;;22.40;63.50;;;;;;6218807;23;20172;-79
2022/04/06 12:11:54;;;;;;;1.02;0.30;;;22.40;64.70;;;;;;6192555;23;20005;-80
2022/04/06 12:14:21;;;;;;;0.77;0.30;;;21.60;65.40;;;;;;6192999;23;20024;-78
2022/04/06 12:16:49;;;;;;;1.35;0.73;;;21.10;67.40;;;;;;6191864;23;20005;-80
2022/04/06 12:19:20;;;;;;;0.82;0.20;;;20.50;67.70;;;;;;6219342;23;20001;-79
2022/04/06 12:21:47;;;;;;;0.35;0.10;;;20.80;67.30;;;;;;6192234;23;20005;-79
2022/04/06 12:24:17;;;;;;;0.57;0.17;;;21.50;64.00;;;;;;6193391;23;20196;-78
2022/04/06 12:26:45;;;;;;;1.58;0.28;;;22.50;63.10;;;;;;6192580;23;20017;-79
2022/04/06 12:29:15;;;;;;;;;;;24.10;60.20;;;;;;6193844;23;20011;-81
2022/04/06 12:31:42;;;;;;;0.57;0.20;;;25.20;60.10;;;;;;6215600;22;19908;-83
2022/04/06 12:34:33;;;;;;;2.00;0.30;;;26.20;57.20;;;;;;6193100;23;20075;-80
2022/04/06 12:39:57;;;;;;;0.38;0.10;;;26.30;56.30;;;;;;6194057;23;20338;-80
2022/04/06 12:42:23;;;;;;;0.73;0.40;;;26.50;56.10;;;;;;6192686;23;20321;-80
2022/04/06 12:45:02;;;;;;;1.10;0.25;;;27.00;55.40;;;;;;6217305;23;20005;-78
2022/04/06 12:47:43;;;;;;;1.33;0.50;;;27.30;53.00;;;;;;6196810;23;20017;-80
2022/04/06 12:50:14;;;;;;;0.60;0.10;;;27.20;53.70;;;;;;6197552;23;20286;-79
2022/04/06 12:52:40;;;;;;;0.68;0.20;;;27.50;53.00;;;;;;6221831;23;20055;-79
2022/04/06 12:55:10;;;;;;;0.70;0.10;;;27.00;53.10;;;;;;6222459;23;20009;-80
2022/04/06 12:57:37;;;;;;;0.80;0.10;;;27.70;52.90;;;;;;6198304;23;20206;-80
2022/04/06 13:00:22;;;;;;;0.68;0.10;;;27.60;54.00;;;;;;6221207;22;20019;-81
2022/04/06 13:03:01;;;;;;;0.73;0.22;;;27.70;52.70;;;;;;6222133;23;20012;-80
2022/04/06 13:05:26;;;;;;;0.77;0.10;;;28.40;51.50;;;;;;6224015;23;20056;-78
2022/04/06 13:07:53;;;;;;;0.60;0.10;;;28.20;52.10;;;;;;6196799;23;20005;-80
2022/04/06 13:10:20;;;;;;;0.90;0.20;;;28.80;50.90;;;;;;6197439;23;20317;-80
2022/04/06 13:12:48;;;;;;;0.80;0.10;;;27.20;52.00;;;;;;6222582;23;20059;-79
2022/04/06 13:15:15;;;;;;;;;;;25.30;55.20;;;;;;6197775;22;20004;-81
2022/04/06 13:17:50;;;;;;;0.52;0.10;;;27.20;53.60;;;;;;6196908;23;19899;-84
2022/04/06 13:20:29;;;;;;;1.48;0.30;;;28.70;52.40;;;;;;6224099;23;20011;-82
2022/04/06 13:23:42;;;;;;;1.52;0.20;;;28.50;52.00;;;;;;6223010;23;20003;-81
2022/04/06 13:30:38;;;;;;;0.85;0.10;;;29.20;50.20;;;;;;6132484;23;20428;-81
2022/04/06 13:37:44;;;;;;;;;;;;;;;;;;;;;
2022/04/06 13:48:52;;;;;;;0.98;0.20;;;26.70;51.00;;;;;;6130180;23;20244;-81
2022/04/06 13:52:12;;;;;;;2.25;0.20;;;25.80;53.40;;;;;;6078660;23;20010;-81
2022/04/06 13:55:24;;;;;;;0.75;0.10;;;27.10;53.30;;;;;;6101146;23;20069;-81
2022/04/06 13:58:28;;;;;;;0.50;0.10;;;29.30;49.90;;;;;;6079463;23;20006;-80
2022/04/06 14:05:19;;;;;;;0.93;0.10;;;29.80;49.90;;;;;;6086316;23;20081;-82
2022/04/06 14:08:27;;;;;;;2.10;0.30;;;29.60;48.80;;;;;;6132913;23;20002;-80
2022/04/06 14:11:12;;;;;;;0.50;0.20;;;29.10;52.40;;;;;;6132925;23;20010;-81
2022/04/06 14:14:31;;;;;;;0.47;0.10;;;29.10;49.10;;;;;;6134121;23;20006;-81
2022/04/06 14:17:17;;;;;;;1.17;0.20;;;30.70;48.80;;;;;;5993148;23;20380;-81
2022/04/06 14:51:19;;;;;;;6.38;0.40;;;27.70;51.20;;;;;;6138504;23;20071;-81
2022/04/06 14:54:00;;;;;;;0.88;0.40;;;25.00;53.70;;;;;;6150226;23;20015;-80
2022/04/06 15:00:28;;;;;;;0.80;0.25;;;21.80;59.80;;;;;;6069139;23;20052;-81
2022/04/06 15:03:07;;;;;;;0.77;0.20;;;20.60;62.40;;;;;;6097228;23;20061;-80
2022/04/06 15:17:33;;;;;;;0.90;0.20;;;25.10;56.40;;;;;;5837439;24;20010;-81
2022/04/06 15:20:43;;;;;;;0.95;0.20;;;26.70;54.80;;;;;;5875625;24;20021;-81
2022/04/06 15:33:58;;;;;;;0.55;0.20;;;26.20;55.00;;;;;;5872889;24;20033;-79
2022/04/06 15:40:21;;;;;;;1.65;0.40;;;25.20;55.40;;;;;;5912623;24;20133;-78
2022/04/06 15:42:59;;;;;;;2.17;0.20;;;24.90;56.30;;;;;;5912442;24;20014;-78
2022/04/06 15:45:30;;;;;;;0.52;0.20;;;23.80;57.60;;;;;;6017818;23;20011;-78
2022/04/06 15:59:40;;;;;;;1.17;0.20;;;24.60;56.60;;;;;;6077875;23;20043;-78
2022/04/06 16:03:00;;;;;;;1.05;0.20;;;23.10;58.50;;;;;;6103359;23;20077;-78
2022/04/06 16:06:20;;;;;;;1.77;0.30;;;21.70;61.90;;;;;;6136466;23;20054;-76
2022/04/06 16:09:17;;;;;;;1.42;0.20;;;20.10;65.00;;;;;;6144293;23;20005;-78
2022/04/06 16:12:01;;;;;;;0.70;0.22;;;19.40;67.50;;;;;;6084481;23;20021;-81
2022/04/06 16:15:07;;;;;;;1.00;0.30;;;18.80;67.60;;;;;;6172934;23;20032;-77
2022/04/06 16:17:43;;;;;;;;;;;;;;;;;;;;;
2022/04/06 16:40:32;;;;;;;1.13;0.40;;;18.80;69.10;;;;;;6144649;22;20101;-79
2022/04/06 16:46:59;;;;;;;1.40;0.57;;;18.30;70.10;;;;;;6200425;23;20065;-78
2022/04/06 16:56:24;;;;;;;1.85;0.60;;;18.00;70.70;;;;;;6194465;23;20020;-78
2022/04/06 17:00:07;;;;;;;1.40;0.50;;;17.80;71.80;;;;;;6105255;23;20069;-78
2022/04/06 17:14:37;;;;;;;0.98;0.30;;;16.80;74.50;;;;;;6133335;23;19911;-79
2022/04/06 17:18:09;;;;;;;2.33;0.52;;;16.70;74.40;;;;;;6132451;23;20084;-78
2022/04/06 17:21:28;;;;;;;2.42;0.90;;;16.40;75.90;;;;;;6096543;23;20118;-77
2022/04/06 17:29:19;;;;;;;;;;;;;;;;;;;;;
2022/04/06 17:32:29;;;;;;;0.70;0.40;;;15.90;77.70;;;;;;5954783;23;20017;-77
2022/04/06 17:34:55;;;;;;;2.55;0.70;;;15.70;77.90;;;;;;5965048;24;20056;-77
2022/04/06 17:41:57;;;;;;;1.93;0.60;;;15.40;78.90;;;;;;6017132;23;20027;-78
2022/04/06 17:44:35;;;;;;;2.23;0.80;;;15.30;79.40;;;;;;5993127;23;20598;-77
2022/04/06 17:47:03;;;;;;;1.23;0.50;;;15.20;80.00;;;;;;6022253;23;20499;-78
2022/04/06 17:49:30;;;;;;;2.45;0.80;;;15.10;80.60;;;;;;6028037;23;20337;-78
2022/04/06 17:51:59;;;;;;;2.70;1.02;;;15.00;80.70;;;;;;6052127;23;20066;-78
2022/04/06 17:54:25;;;;;;;3.00;0.98;;;15.00;80.70;;;;;;6026959;23;20006;-78
2022/04/06 17:56:51;;;;;;;2.50;1.00;;;14.90;81.00;;;;;;6049790;23;20011;-80
2022/04/06 17:59:17;;;;;;;2.15;0.90;;;14.80;81.20;;;;;;6027888;23;20011;-79
2022/04/06 18:01:44;;;;;;;1.95;0.90;;;14.70;81.40;;;;;;6050649;23;20340;-77
2022/04/06 18:04:13;;;;;;;1.63;0.65;;;14.50;82.00;;;;;;6051513;23;20221;-80
2022/04/06 18:06:42;;;;;;;1.92;0.65;;;14.50;82.50;;;;;;6106795;23;20045;-81
2022/04/06 18:09:13;;;;;;;2.75;0.70;;;14.40;82.80;;;;;;6192672;23;20009;-79
2022/04/06 18:22:48;;;;;;;1.70;0.80;;;14.10;84.10;;;;;;6109870;23;20073;-78
2022/04/06 18:26:17;;;;;;;;;;;;;;;;;;;;;
2022/04/06 18:28:52;;;;;;;;;;;13.80;85.20;;;;;;6102510;23;20007;-80
2022/04/06 18:35:48;;;;;;;;;;;;;;;;;;;;;
2022/04/06 18:39:28;;;;;;;1.67;0.75;;;13.50;87.20;;;;;;6114242;23;20021;-81
2022/04/06 18:46:00;;;;;;;2.92;0.75;;;13.30;88.10;;;;;;6080782;23;20087;-80
2022/04/06 18:49:07;;;;;;;;;;;13.20;88.60;;;;;;6059858;23;20065;-79
2022/04/06 18:51:35;;;;;;;2.15;0.90;;;13.20;88.90;;;;;;6069329;23;19926;-78
2022/04/06 18:58:01;;;;;;;2.55;0.90;;;13.10;89.30;;;;;;6028711;23;20007;-79
2022/04/06 19:19:08;;;;;;;2.72;1.15;;;12.60;91.10;;;;;;6208638;22;20051;-79
2022/04/06 19:29:33;;;;;;;2.47;1.00;;;12.50;91.50;;;;;;6225386;23;20248;-79
2022/04/06 19:31:59;;;;;;;1.90;0.90;;;12.50;91.60;;;;;;6225031;23;20009;-82
2022/04/06 19:34:39;;;;;;;2.00;0.80;;;12.50;91.90;;;;;;6178133;23;20011;-79
2022/04/06 19:40:31;;;;;;;2.00;0.88;;;12.40;91.60;;;;;;6227696;23;20014;-80
2022/04/06 20:29:59;;;;;;;2.15;1.00;;;12.10;93.10;;;;;;6162583;22;20028;-79
2022/04/06 20:36:39;;;;;;;1.80;0.90;;;12.00;93.50;;;;;;6108294;23;20012;-79
2022/04/06 20:39:11;;;;;;;2.88;0.90;;;12.00;93.80;;;;;;6081252;23;20212;-78
2022/04/06 20:56:30;;;;;;;2.28;1.05;;;11.80;94.80;;;;;;5907089;24;20020;-79
2022/04/06 20:59:30;;;;;;;3.05;1.20;;;11.80;95.20;;;;;;5907424;24;20179;-82
2022/04/06 21:02:19;;;;;;;2.15;1.17;;;11.90;95.00;;;;;;5920130;24;20298;-80
2022/04/06 21:04:45;;;;;;;2.33;1.42;;;11.90;95.10;;;;;;5884400;24;20014;-80
2022/04/06 21:07:25;;;;;;;2.50;1.15;;;11.90;95.20;;;;;;5884684;24;20342;-79
2022/04/06 21:13:39;;;;;;;2.45;1.02;;;11.90;95.20;;;;;;5932390;24;20015;-80
2022/04/06 21:16:08;;;;;;;2.15;1.05;;;11.90;95.20;;;;;;5967004;23;20009;-80
2022/04/06 21:18:34;;;;;;;2.53;1.17;;;11.90;95.10;;;;;;5962545;23;20011;-78
2022/04/06 21:21:03;;;;;;;1.83;0.90;;;11.90;95.20;;;;;;6101343;23;20011;-81
2022/04/06 21:27:48;;;;;;;2.05;1.02;;;11.90;95.20;;;;;;6083595;23;20069;-78
2022/04/06 21:36:59;;;;;;;2.42;1.00;;;11.90;95.20;;;;;;6050706;23;20014;-81
2022/04/06 21:39:25;;;;;;;2.25;1.10;;;11.90;95.10;;;;;;6049167;23;20008;-79
2022/04/06 21:41:50;;;;;;;2.55;1.10;;;11.90;95.00;;;;;;6050287;23;20007;-79
2022/04/06 21:44:16;;;;;;;2.65;1.05;;;12.00;95.10;;;;;;6076103;23;20078;-80
2022/04/06 21:46:42;;;;;;;2.13;1.00;;;11.90;95.60;;;;;;6052410;23;20018;-79
2022/04/06 21:49:08;;;;;;;3.38;1.08;;;11.80;96.60;;;;;;6063336;23;20018;-80
2022/04/06 21:51:35;;;;;;;2.60;1.15;;;11.70;96.90;;;;;;6080985;23;19998;-80
2022/04/06 21:54:46;;;;;;;2.55;1.25;;;11.70;97.70;;;;;;6093447;23;20255;-80
2022/04/06 21:57:12;;;;;;;3.75;1.55;;;11.50;97.80;;;;;;6001729;23;20316;-80
2022/04/06 22:00:08;;;;;;;2.45;1.30;;;11.40;98.30;;;;;;6002060;23;20042;-78
2022/04/06 22:06:53;;;;;;;2.70;1.40;;;11.40;98.40;;;;;;6049666;23;20032;-79
2022/04/06 22:10:07;;;;;;;;;;;;;;;;;;;;;
2022/04/06 22:13:26;;;;;;;2.08;1.25;;;11.40;98.00;;;;;;6048286;23;20071;-81
2022/04/06 22:20:05;;;;;;;3.33;1.52;;;11.30;98.00;;;;;;6171373;23;20020;-79
2022/04/06 22:26:51;;;;;;;3.10;1.50;;;11.40;97.70;;;;;;6197640;23;20004;-79
2022/04/06 22:29:17;;;;;;;2.60;1.42;;;11.40;97.80;;;;;;6170492;23;20008;-78
2022/04/06 22:32:07;;;;;;;3.58;1.40;;;11.40;97.90;;;;;;6186066;23;20059;-81
2022/04/06 22:35:12;;;;;;;2.45;1.42;;;11.30;98.00;;;;;;6140739;23;20033;-80
2022/04/06 22:37:38;;;;;;;3.38;1.40;;;11.40;97.90;;;;;;6138255;23;20212;-80
2022/04/06 22:40:04;;;;;;;3.70;1.60;;;11.30;98.00;;;;;;6115965;23;20020;-79
2022/04/06 22:42:30;;;;;;;2.55;1.60;;;11.40;98.00;;;;;;6141023;23;20001;-78
2022/04/06 22:44:57;;;;;;;2.20;1.40;;;11.40;98.10;;;;;;6168286;23;20298;-77
2022/04/06 22:47:27;;;;;;;2.63;1.50;;;11.30;98.20;;;;;;6165216;23;20243;-80
2022/04/06 22:49:53;;;;;;;2.75;1.50;;;11.30;98.20;;;;;;6167247;23;20002;-80
2022/04/06 22:52:19;;;;;;;3.47;1.50;;;11.20;98.40;;;;;;6142235;23;20049;-80
2022/04/06 22:54:44;;;;;;;3.15;1.25;;;11.20;98.50;;;;;;6144245;23;20060;-81
2022/04/06 22:57:10;;;;;;;2.05;1.20;;;11.10;98.50;;;;;;6166242;23;20008;-81
2022/04/06 22:59:36;;;;;;;2.92;1.25;;;11.10;98.70;;;;;;6140134;23;20025;-81
2022/04/06 23:02:02;;;;;;;2.95;1.40;;;11.10;98.80;;;;;;6139216;23;20013;-81
2022/04/06 23:04:27;;;;;;;2.30;1.20;;;11.10;98.80;;;;;;6115793;23;20021;-81
2022/04/06 23:06:53;;;;;;;2.40;1.17;;;11.10;98.90;;;;;;6140533;23;20021;-81
2022/04/06 23:09:19;;;;;;;2.35;1.25;;;11.20;98.80;;;;;;6141569;23;20009;-78
2022/04/06 23:11:46;;;;;;;2.33;1.35;;;11.20;98.70;;;;;;6165992;23;20025;-81
2022/04/06 23:14:11;;;;;;;2.65;1.48;;;11.20;98.60;;;;;;6140814;23;20010;-78
2022/04/06 23:16:37;;;;;;;2.20;1.25;;;11.20;98.70;;;;;;6102539;23;20026;-80
2022/04/06 23:19:03;;;;;;;1.95;1.10;;;11.20;99.20;;;;;;6140600;23;20006;-81
2022/04/06 23:21:29;;;;;;;2.58;1.40;;;11.10;99.90;;;;;;6142866;23;20009;-80
2022/04/06 23:23:56;;;;;;;2.00;1.33;;;11.10;99.90;;;;;;6142544;23;20005;-80
2022/04/06 23:26:22;;;;;;;2.40;1.40;;;11.00;99.90;;;;;;6141434;23;19993;-81
2022/04/06 23:28:48;;;;;;;3.28;1.27;;;10.90;99.90;;;;;;6140641;23;20283;-80
2022/04/06 23:31:15;;;;;;;1.92;1.10;;;10.90;99.90;;;;;;6151954;23;20060;-79
2022/04/06 23:33:42;;;;;;;2.25;1.27;;;10.70;99.90;;;;;;6169858;23;20016;-78
2022/04/06 23:36:08;;;;;;;2.83;1.27;;;10.70;99.90;;;;;;6195651;23;20004;-80
2022/04/06 23:38:33;;;;;;;2.00;1.20;;;10.70;99.90;;;;;;6194654;23;20179;-80
2022/04/06 23:40:59;;;;;;;2.08;1.10;;;10.60;99.90;;;;;;6170130;23;20009;-80
2022/04/06 23:43:27;;;;;;;2.47;1.45;;;10.70;99.90;;;;;;6193978;23;20052;-79
2022/04/06 23:45:54;;;;;;;2.10;1.17;;;10.70;99.90;;;;;;6194204;23;20031;-80
2022/04/06 23:48:22;;;;;;;2.05;1.10;;;10.70;99.90;;;;;;6195390;23;20000;-76
2022/04/06 23:51:10;;;;;;;2.40;1.20;;;10.70;99.90;;;;;;6196329;23;20085;-79
2022/04/06 23:53:37;;;;;;;2.30;1.20;;;10.70;99.90;;;;;;6170327;23;20008;-79
2022/04/06 23:56:03;;;;;;;2.20;0.93;;;10.70;99.90;;;;;;6195760;23;20011;-80
2022/04/06 23:58:29;;;;;;;2.00;0.90;;;10.70;99.90;;;;;;6195144;23;20004;-79
